Time;durP1;ratioP1;P1;durP2;ratioP2;P2;SDS_P1;SDS_P2;PMS_P1;PMS_P2;Temp;Humidity;BMP_temperature;BMP_pressure;BME280_temperature;BME280_humidity;BME280_pressure;Samples;Min_cycle;Max_cycle;Signal;HPM_P1;HPM_P2
2023/03/06 00:00:18;;;;;;;6.40;4.90;;;;;;;;;;5086203;28;20220;-89
2023/03/06 00:02:45;;;;;;;5.57;4.93;;;;;;;;;;5084356;28;20218;-89
2023/03/06 00:05:12;;;;;;;5.87;5.27;;;;;;;;;;5075584;28;20229;-89
2023/03/06 00:07:43;;;;;;;6.33;5.00;;;;;;;;;;5080403;28;20206;-89
2023/03/06 00:10:13;;;;;;;6.43;4.67;;;;;;;;;;5087518;28;20210;-89
2023/03/06 00:12:40;;;;;;;5.47;4.97;;;;;;;;;;5085036;28;20209;-88
2023/03/06 00:15:08;;;;;;;6.23;5.63;;;;;;;;;;5087083;28;20271;-89
2023/03/06 00:17:36;;;;;;;5.53;5.03;;;;;;;;;;5085065;28;20296;-89
2023/03/06 00:20:03;;;;;;;7.67;5.40;;;;;;;;;;5082386;28;20265;-89
2023/03/06 00:22:30;;;;;;;6.23;5.63;;;;;;;;;;5086423;28;20213;-88
2023/03/06 00:24:59;;;;;;;6.30;5.40;;;;;;;;;;5088559;28;20229;-89
2023/03/06 00:27:27;;;;;;;5.83;4.97;;;;;;;;;;5082247;28;20213;-89
2023/03/06 00:29:58;;;;;;;6.57;5.63;;;;;;;;;;5086937;28;20213;-89
2023/03/06 00:32:26;;;;;;;5.77;5.10;;;;;;;;;;5083587;28;20232;-88
2023/03/06 00:34:54;;;;;;;5.23;4.60;;;;;;;;;;5084789;28;20225;-89
2023/03/06 00:37:21;;;;;;;6.03;5.40;;;;;;;;;;5087031;28;20194;-89
2023/03/06 00:39:49;;;;;;;5.20;4.67;;;;;;;;;;5082595;28;20275;-89
2023/03/06 00:42:20;;;;;;;5.17;4.67;;;;;;;;;;5084717;28;20215;-89
2023/03/06 00:44:48;;;;;;;5.90;5.30;;;;;;;;;;5086600;28;20234;-88
2023/03/06 00:47:18;;;;;;;5.03;4.53;;;;;;;;;;5086221;28;20206;-89
2023/03/06 00:49:46;;;;;;;5.50;4.87;;;;;;;;;;5086883;28;20228;-89
2023/03/06 00:52:13;;;;;;;5.60;5.00;;;;;;;;;;5087950;28;20279;-88
2023/03/06 00:54:41;;;;;;;5.50;4.53;;;;;;;;;;5086421;28;20213;-89
2023/03/06 00:57:08;;;;;;;6.03;5.03;;;;;;;;;;5089215;28;20202;-89
2023/03/06 00:59:37;;;;;;;5.63;5.03;;;;;;;;;;5087404;28;20213;-90
2023/03/06 01:02:05;;;;;;;6.00;4.80;;;;;;;;;;5082002;28;20206;-88
2023/03/06 01:04:32;;;;;;;5.43;4.53;;;;;;;;;;5080520;28;20218;-88
2023/03/06 01:07:03;;;;;;;6.33;5.73;;;;;;;;;;5086659;28;20205;-89
2023/03/06 01:09:30;;;;;;;5.67;5.07;;;;;;;;;;5088617;28;20259;-89
2023/03/06 01:11:57;;;;;;;5.63;5.10;;;;;;;;;;5087017;28;20208;-89
2023/03/06 01:14:25;;;;;;;7.93;5.37;;;;;;;;;;5082108;28;20263;-88
2023/03/06 01:16:54;;;;;;;7.77;5.50;;;;;;;;;;5086441;28;20255;-88
2023/03/06 01:19:21;;;;;;;5.97;5.10;;;;;;;;;;5091313;28;20206;-89
2023/03/06 01:21:49;;;;;;;6.67;5.63;;;;;;;;;;5091938;28;20289;-88
2023/03/06 01:24:19;;;;;;;6.67;5.30;;;;;;;;;;5091500;28;20225;-88
2023/03/06 01:26:49;;;;;;;5.23;4.70;;;;;;;;;;5090807;28;20213;-89
2023/03/06 01:29:17;;;;;;;6.77;5.30;;;;;;;;;;5087387;28;20202;-89
2023/03/06 01:31:44;;;;;;;7.03;6.10;;;;;;;;;;5090288;28;20233;-87
2023/03/06 01:34:13;;;;;;;6.10;5.40;;;;;;;;;;5090072;28;20230;-89
2023/03/06 01:36:40;;;;;;;6.03;5.43;;;;;;;;;;5087166;28;20194;-88
2023/03/06 01:39:07;;;;;;;7.23;5.60;;;;;;;;;;5080138;28;20273;-88
2023/03/06 01:41:35;;;;;;;6.53;5.43;;;;;;;;;;5087573;28;20226;-88
2023/03/06 01:44:03;;;;;;;5.53;4.97;;;;;;;;;;5089319;28;20218;-88
2023/03/06 01:46:32;;;;;;;7.93;5.47;;;;;;;;;;5089421;28;20199;-88
2023/03/06 01:49:01;;;;;;;6.10;5.50;;;;;;;;;;5089002;28;20217;-89
2023/03/06 01:51:32;;;;;;;10.50;5.90;;;;;;;;;;5074108;28;20347;-88
2023/03/06 01:54:01;;;;;;;8.27;5.93;;;;;;;;;;5085045;28;20205;-89
2023/03/06 01:56:29;;;;;;;7.10;6.40;;;;;;;;;;5089262;28;20198;-88
2023/03/06 01:58:57;;;;;;;6.53;5.93;;;;;;;;;;5088602;28;20209;-89
2023/03/06 02:01:24;;;;;;;7.07;6.30;;;;;;;;;;5086444;28;20210;-94
2023/03/06 02:03:52;;;;;;;7.83;6.60;;;;;;;;;;5082541;28;20242;-94
2023/03/06 02:06:20;;;;;;;9.13;6.50;;;;;;;;;;5091004;28;20202;-94
2023/03/06 02:08:50;;;;;;;6.70;6.00;;;;;;;;;;5089918;28;20202;-93
2023/03/06 02:11:18;;;;;;;6.60;5.90;;;;;;;;;;5083148;28;20206;-94
2023/03/06 02:13:46;;;;;;;7.33;6.07;;;;;;;;;;5085845;28;20215;-94
2023/03/06 02:16:14;;;;;;;7.37;6.30;;;;;;;;;;5089937;28;20209;-94
2023/03/06 02:18:42;;;;;;;7.33;6.30;;;;;;;;;;5087050;28;20202;-92
2023/03/06 02:21:11;;;;;;;6.70;6.00;;;;;;;;;;5089058;28;20301;-94
2023/03/06 02:23:41;;;;;;;7.03;6.17;;;;;;;;;;5089316;28;20278;-94
2023/03/06 02:26:10;;;;;;;8.03;6.20;;;;;;;;;;5080781;28;20240;-94
2023/03/06 02:28:39;;;;;;;7.80;6.60;;;;;;;;;;5083390;28;20224;-94
2023/03/06 02:31:06;;;;;;;7.27;6.47;;;;;;;;;;5086375;28;20230;-94
2023/03/06 02:33:34;;;;;;;8.77;6.70;;;;;;;;;;5087724;28;20214;-94
2023/03/06 02:36:02;;;;;;;7.77;6.97;;;;;;;;;;5089760;28;20210;-93
2023/03/06 02:38:30;;;;;;;9.60;6.30;;;;;;;;;;5088516;28;20222;-94
2023/03/06 02:40:58;;;;;;;7.80;6.97;;;;;;;;;;5085268;28;20232;-94
2023/03/06 02:43:29;;;;;;;8.30;7.23;;;;;;;;;;5085580;28;20210;-94
2023/03/06 02:45:56;;;;;;;8.83;7.10;;;;;;;;;;5088131;28;20210;-95
2023/03/06 02:48:24;;;;;;;11.03;6.30;;;;;;;;;;5087227;28;20228;-94
2023/03/06 02:50:51;;;;;;;8.53;7.30;;;;;;;;;;5089978;28;20198;-95
2023/03/06 02:53:19;;;;;;;8.50;7.00;;;;;;;;;;5090054;28;20210;-93
2023/03/06 02:55:47;;;;;;;8.70;6.80;;;;;;;;;;5084306;28;20214;-94
2023/03/06 02:58:15;;;;;;;10.20;6.80;;;;;;;;;;5089849;28;20328;-93
2023/03/06 03:00:46;;;;;;;8.17;6.80;;;;;;;;;;5090059;28;20198;-94
2023/03/06 03:03:13;;;;;;;9.73;7.00;;;;;;;;;;5088077;28;20203;-94
2023/03/06 03:05:41;;;;;;;8.87;7.30;;;;;;;;;;5089478;28;20229;-94
2023/03/06 03:08:08;;;;;;;9.90;7.13;;;;;;;;;;5088204;28;20498;-94
2023/03/06 03:10:35;;;;;;;8.07;7.27;;;;;;;;;;5088687;28;20202;-94
2023/03/06 03:13:03;;;;;;;9.77;7.50;;;;;;;;;;5089960;28;20206;-94
2023/03/06 03:15:30;;;;;;;8.37;7.47;;;;;;;;;;5087732;28;20207;-93
2023/03/06 03:17:59;;;;;;;8.00;7.20;;;;;;;;;;5089046;28;20267;-94
2023/03/06 03:20:26;;;;;;;8.77;7.67;;;;;;;;;;5086319;28;20217;-94
2023/03/06 03:22:55;;;;;;;9.10;7.60;;;;;;;;;;5087079;28;20218;-94
2023/03/06 03:25:23;;;;;;;9.50;7.63;;;;;;;;;;5088738;28;20332;-94
2023/03/06 03:27:53;;;;;;;9.50;7.43;;;;;;;;;;5080371;28;20203;-95
2023/03/06 03:30:20;;;;;;;10.23;7.80;;;;;;;;;;5086620;28;20203;-94
2023/03/06 03:32:48;;;;;;;8.37;7.40;;;;;;;;;;5088319;28;20213;-94
2023/03/06 03:35:20;;;;;;;8.70;7.37;;;;;;;;;;5086290;28;20202;-94
2023/03/06 03:37:47;;;;;;;8.80;7.60;;;;;;;;;;5085818;28;20214;-94
2023/03/06 03:40:14;;;;;;;10.10;7.33;;;;;;;;;;5086553;28;20202;-94
2023/03/06 03:42:43;;;;;;;8.20;7.33;;;;;;;;;;5084528;28;20243;-94
2023/03/06 03:45:11;;;;;;;10.77;7.77;;;;;;;;;;5088230;28;20246;-94
2023/03/06 03:47:39;;;;;;;9.20;7.70;;;;;;;;;;5078244;28;20237;-95
2023/03/06 03:50:07;;;;;;;10.87;7.77;;;;;;;;;;5085875;28;20210;-95
2023/03/06 03:52:36;;;;;;;8.63;7.30;;;;;;;;;;5086854;28;20213;-94
2023/03/06 03:55:03;;;;;;;7.77;7.00;;;;;;;;;;5082701;28;20199;-95
2023/03/06 03:57:31;;;;;;;9.30;7.63;;;;;;;;;;5086632;28;20264;-94
2023/03/06 03:59:58;;;;;;;9.00;7.13;;;;;;;;;;5083620;28;20221;-94
2023/03/06 04:02:25;;;;;;;8.77;6.93;;;;;;;;;;5087897;28;20210;-94
2023/03/06 04:04:54;;;;;;;7.43;6.63;;;;;;;;;;5086217;28;20317;-94
2023/03/06 04:07:21;;;;;;;10.30;7.30;;;;;;;;;;5091048;28;20213;-94
2023/03/06 04:09:50;;;;;;;8.23;6.90;;;;;;;;;;5085867;28;20205;-94
2023/03/06 04:12:17;;;;;;;8.63;7.47;;;;;;;;;;5088414;28;20198;-94
2023/03/06 04:14:45;;;;;;;8.37;7.07;;;;;;;;;;5087132;28;20293;-94
2023/03/06 04:17:12;;;;;;;11.77;7.07;;;;;;;;;;5084622;28;20214;-93
2023/03/06 04:19:40;;;;;;;7.90;6.83;;;;;;;;;;5085467;28;20288;-94
2023/03/06 04:22:07;;;;;;;9.97;7.60;;;;;;;;;;5088179;28;20201;-94
2023/03/06 04:24:35;;;;;;;9.17;7.10;;;;;;;;;;5085446;28;20237;-94
2023/03/06 04:27:03;;;;;;;11.83;7.17;;;;;;;;;;5088157;28;20216;-94
2023/03/06 04:29:31;;;;;;;9.47;6.30;;;;;;;;;;5087637;28;20209;-92
2023/03/06 04:31:58;;;;;;;7.67;6.90;;;;;;;;;;5094481;28;20229;-94
2023/03/06 04:34:25;;;;;;;10.43;7.20;;;;;;;;;;5082373;28;20215;-94
2023/03/06 04:36:53;;;;;;;8.70;6.50;;;;;;;;;;5086093;28;20206;-94
2023/03/06 04:39:20;;;;;;;9.87;6.80;;;;;;;;;;5087150;28;20206;-95
2023/03/06 04:41:47;;;;;;;8.03;6.90;;;;;;;;;;5085891;28;20209;-94
2023/03/06 04:44:16;;;;;;;7.43;6.13;;;;;;;;;;5087342;28;20213;-94
2023/03/06 04:46:44;;;;;;;9.20;7.03;;;;;;;;;;5079821;28;20203;-94
2023/03/06 04:49:11;;;;;;;7.70;6.90;;;;;;;;;;5083505;28;20285;-94
2023/03/06 04:51:39;;;;;;;7.30;6.23;;;;;;;;;;5084414;28;20288;-94
2023/03/06 04:54:06;;;;;;;8.87;7.00;;;;;;;;;;5087934;28;20214;-94
2023/03/06 04:56:34;;;;;;;9.27;7.50;;;;;;;;;;5086484;28;20210;-94
2023/03/06 04:59:02;;;;;;;7.67;6.33;;;;;;;;;;5085585;28;20208;-93
2023/03/06 05:01:31;;;;;;;10.77;6.87;;;;;;;;;;5082590;28;20206;-94
2023/03/06 05:03:59;;;;;;;8.90;7.17;;;;;;;;;;5086196;28;20209;-94
2023/03/06 05:06:26;;;;;;;9.07;7.43;;;;;;;;;;5087219;28;20219;-95
2023/03/06 05:08:55;;;;;;;8.37;6.77;;;;;;;;;;5083034;28;20265;-94
2023/03/06 05:11:26;;;;;;;10.87;7.30;;;;;;;;;;5088072;28;20221;-92
2023/03/06 05:13:53;;;;;;;8.57;7.50;;;;;;;;;;5088170;28;20271;-94
2023/03/06 05:16:20;;;;;;;9.30;7.00;;;;;;;;;;5085587;28;20193;-93
2023/03/06 05:18:49;;;;;;;8.37;7.17;;;;;;;;;;5084918;28;20255;-94
2023/03/06 05:21:17;;;;;;;8.97;7.53;;;;;;;;;;5084928;28;20252;-94
2023/03/06 05:23:44;;;;;;;10.23;7.70;;;;;;;;;;5089115;28;20232;-94
2023/03/06 05:26:12;;;;;;;9.40;7.53;;;;;;;;;;5087573;28;20226;-94
2023/03/06 05:28:39;;;;;;;8.17;7.23;;;;;;;;;;5082498;28;20210;-94
2023/03/06 05:31:07;;;;;;;11.93;7.97;;;;;;;;;;5083916;28;20236;-93
2023/03/06 05:33:36;;;;;;;11.33;8.23;;;;;;;;;;5073821;28;20213;-94
2023/03/06 05:36:05;;;;;;;11.47;7.73;;;;;;;;;;5082774;28;20213;-94
2023/03/06 05:38:32;;;;;;;8.73;7.23;;;;;;;;;;5083754;28;20256;-95
2023/03/06 05:41:00;;;;;;;10.07;7.93;;;;;;;;;;5080463;28;20202;-94
2023/03/06 05:43:27;;;;;;;9.13;7.23;;;;;;;;;;5086417;28;20273;-95
2023/03/06 05:46:01;;;;;;;11.20;8.20;;;;;;;;;;5086778;28;20222;-95
2023/03/06 05:48:28;;;;;;;9.03;8.13;;;;;;;;;;5083890;28;20217;-94
2023/03/06 05:50:56;;;;;;;10.33;8.40;;;;;;;;;;5083947;28;20218;-95
2023/03/06 05:53:26;;;;;;;10.57;8.60;;;;;;;;;;5082419;28;20206;-94
2023/03/06 05:55:57;;;;;;;11.30;8.47;;;;;;;;;;5086853;28;20202;-94
2023/03/06 05:58:24;;;;;;;9.40;7.87;;;;;;;;;;5087286;28;20209;-95
2023/03/06 06:00:52;;;;;;;11.60;8.60;;;;;;;;;;5085892;28;20209;-94
2023/03/06 06:03:20;;;;;;;10.23;8.43;;;;;;;;;;5085538;28;20205;-94
2023/03/06 06:05:47;;;;;;;10.77;8.87;;;;;;;;;;5086674;28;20226;-94
2023/03/06 06:08:14;;;;;;;11.23;9.10;;;;;;;;;;5087898;28;20210;-94
2023/03/06 06:10:43;;;;;;;10.20;8.60;;;;;;;;;;5088026;28;20209;-94
2023/03/06 06:13:10;;;;;;;11.13;9.00;;;;;;;;;;5089474;28;20202;-94
2023/03/06 06:15:38;;;;;;;10.57;8.97;;;;;;;;;;5084122;28;20202;-93
2023/03/06 06:18:06;;;;;;;10.83;8.70;;;;;;;;;;5089338;28;20206;-94
2023/03/06 06:20:34;;;;;;;10.60;9.00;;;;;;;;;;5091358;28;20205;-94
2023/03/06 06:23:01;;;;;;;13.17;9.50;;;;;;;;;;5081753;28;20203;-94
2023/03/06 06:25:29;;;;;;;10.37;8.93;;;;;;;;;;5085884;28;20244;-93
2023/03/06 06:27:57;;;;;;;11.03;9.03;;;;;;;;;;5086756;28;20233;-94
2023/03/06 06:30:28;;;;;;;15.17;9.50;;;;;;;;;;5091506;28;20213;-93
2023/03/06 06:32:55;;;;;;;11.73;9.00;;;;;;;;;;5084284;28;20210;-94
2023/03/06 06:35:23;;;;;;;13.17;9.70;;;;;;;;;;5083038;28;20194;-94
2023/03/06 06:37:50;;;;;;;10.37;9.03;;;;;;;;;;5076219;28;20210;-94
2023/03/06 06:40:18;;;;;;;9.93;8.30;;;;;;;;;;5087758;28;20213;-94
2023/03/06 06:42:46;;;;;;;12.00;9.77;;;;;;;;;;5079408;28;20263;-95
2023/03/06 06:45:15;;;;;;;11.57;9.57;;;;;;;;;;5087865;28;20214;-94
2023/03/06 06:47:42;;;;;;;11.23;9.30;;;;;;;;;;5083715;28;20202;-94
2023/03/06 06:50:11;;;;;;;13.20;10.67;;;;;;;;;;5079892;28;20230;-94
2023/03/06 06:52:46;;;;;;;11.30;8.53;;;;;;;;;;5079240;28;20209;-95
2023/03/06 06:55:13;;;;;;;12.80;9.67;;;;;;;;;;5055821;28;20217;-95
2023/03/06 06:57:41;;;;;;;13.57;10.70;;;;;;;;;;5069077;28;20214;-94
2023/03/06 07:00:09;;;;;;;13.10;10.60;;;;;;;;;;5059169;28;20210;-92
2023/03/06 07:05:27;;;;;;;11.37;9.50;;;;;;;;;;5052363;28;20219;-95
2023/03/06 07:11:06;;;;;;;14.33;10.70;;;;;;;;;;5040979;28;20209;-94
2023/03/06 07:13:35;;;;;;;14.20;11.37;;;;;;;;;;5068987;28;20198;-94
2023/03/06 07:16:09;;;;;;;13.37;10.97;;;;;;;;;;5065914;28;20249;-94
2023/03/06 07:18:45;;;;;;;15.10;10.97;;;;;;;;;;5063157;28;20295;-94
2023/03/06 07:21:19;;;;;;;13.83;10.60;;;;;;;;;;5055784;28;20244;-93
2023/03/06 07:26:40;;;;;;;13.77;10.90;;;;;;;;;;5054871;28;20250;-95
2023/03/06 07:29:38;;;;;;;14.50;10.97;;;;;;;;;;5056518;28;20215;-95
2023/03/06 07:32:19;;;;;;;14.27;11.27;;;;;;;;;;5067914;28;20217;-94
2023/03/06 07:38:08;;;;;;;13.63;11.50;;;;;;;;;;5005900;28;20435;-94
2023/03/06 07:41:00;;;;;;;14.30;11.40;;;;;;;;;;5018290;28;20202;-95
2023/03/06 07:43:42;;;;;;;14.07;10.90;;;;;;;;;;5053145;28;20210;-95
2023/03/06 07:48:58;;;;;;;14.67;11.43;;;;;;;;;;5053703;28;20303;-94
2023/03/06 07:51:27;;;;;;;14.97;11.27;;;;;;;;;;5066148;28;20293;-92
2023/03/06 07:54:01;;;;;;;13.30;11.13;;;;;;;;;;5067507;28;20226;-93
2023/03/06 07:56:38;;;;;;;15.13;11.90;;;;;;;;;;5057672;28;20199;-94
2023/03/06 07:59:08;;;;;;;15.53;11.30;;;;;;;;;;5070318;28;20202;-94
2023/03/06 08:01:40;;;;;;;15.27;11.60;;;;;;;;;;5058595;28;20210;-92
2023/03/06 08:04:15;;;;;;;13.33;10.63;;;;;;;;;;5068715;28;20203;-93
2023/03/06 08:06:48;;;;;;;14.97;11.93;;;;;;;;;;5069172;28;20225;-93
2023/03/06 08:09:24;;;;;;;14.97;11.87;;;;;;;;;;5058795;28;20226;-93
2023/03/06 08:12:04;;;;;;;15.83;11.77;;;;;;;;;;5071055;28;20314;-95
2023/03/06 08:14:54;;;;;;;14.73;11.40;;;;;;;;;;5053155;28;20214;-94
2023/03/06 08:17:27;;;;;;;13.17;10.73;;;;;;;;;;5056495;28;20294;-93
2023/03/06 08:22:56;;;;;;;13.63;11.57;;;;;;;;;;5067694;28;20215;-93
2023/03/06 08:25:48;;;;;;;15.43;12.20;;;;;;;;;;5052882;28;20242;-96
2023/03/06 08:28:30;;;;;;;17.87;12.60;;;;;;;;;;5057844;28;20211;-95
2023/03/06 08:31:32;;;;;;;13.93;11.97;;;;;;;;;;5056204;28;20301;-95
2023/03/06 08:37:12;;;;;;;16.90;12.27;;;;;;;;;;5066802;28;20271;-95
2023/03/06 08:40:05;;;;;;;15.80;12.23;;;;;;;;;;5065784;28;20216;-96
2023/03/06 08:42:43;;;;;;;16.83;12.80;;;;;;;;;;5064956;28;20210;-95
2023/03/06 08:45:20;;;;;;;16.73;12.03;;;;;;;;;;5057387;28;20215;-93
2023/03/06 08:47:57;;;;;;;14.17;11.73;;;;;;;;;;5060811;28;20269;-95
2023/03/06 08:50:29;;;;;;;15.37;12.47;;;;;;;;;;5062862;28;20199;-92
2023/03/06 08:52:59;;;;;;;16.13;12.93;;;;;;;;;;5061551;28;20215;-94
2023/03/06 08:55:54;;;;;;;16.60;13.33;;;;;;;;;;5063739;28;20206;-94
2023/03/06 09:01:59;;;;;;;16.93;13.03;;;;;;;;;;5065053;28;20186;-94
2023/03/06 09:13:53;;;;;;;15.97;13.17;;;;;;;;;;4944108;28;20309;-94
2023/03/06 09:16:26;;;;;;;16.13;12.80;;;;;;;;;;4942622;28;20214;-94
2023/03/06 09:19:15;;;;;;;16.23;13.07;;;;;;;;;;4951690;28;20210;-94
2023/03/06 09:38:06;;;;;;;15.00;12.17;;;;;;;;;;4832584;29;20207;-94
2023/03/06 09:40:49;;;;;;;14.27;12.37;;;;;;;;;;4891851;29;20212;-96
2023/03/06 09:46:12;;;;;;;16.40;13.60;;;;;;;;;;4946638;28;20239;-96
2023/03/06 09:48:48;;;;;;;17.10;12.80;;;;;;;;;;5001318;28;20273;-95
2023/03/06 09:54:30;;;;;;;15.77;11.90;;;;;;;;;;5069666;28;20290;-95
2023/03/06 09:57:04;;;;;;;15.63;12.43;;;;;;;;;;5062597;28;20229;-93
2023/03/06 09:59:32;;;;;;;14.03;12.27;;;;;;;;;;5069122;28;20217;-94
2023/03/06 10:02:03;;;;;;;14.23;11.90;;;;;;;;;;5064018;28;20257;-95
2023/03/06 10:04:38;;;;;;;14.37;12.37;;;;;;;;;;5050998;28;20204;-94
2023/03/06 10:07:11;;;;;;;14.30;12.40;;;;;;;;;;5061546;28;20234;-96
2023/03/06 10:09:44;;;;;;;15.10;12.37;;;;;;;;;;5061725;28;20278;-95
2023/03/06 10:12:22;;;;;;;15.47;12.90;;;;;;;;;;5061114;28;20211;-94
2023/03/06 10:15:09;;;;;;;14.37;12.20;;;;;;;;;;5064780;28;20203;-95
2023/03/06 10:17:46;;;;;;;16.23;12.90;;;;;;;;;;5070883;28;20222;-95
2023/03/06 10:20:23;;;;;;;15.47;12.80;;;;;;;;;;5062921;28;20224;-95
2023/03/06 10:23:07;;;;;;;16.23;12.10;;;;;;;;;;5068686;28;20198;-94
2023/03/06 10:25:41;;;;;;;18.30;12.83;;;;;;;;;;5058968;28;20219;-94
2023/03/06 10:28:22;;;;;;;13.20;11.80;;;;;;;;;;5059517;28;20293;-95
2023/03/06 10:31:16;;;;;;;14.67;11.87;;;;;;;;;;5070614;28;20216;-95
2023/03/06 10:33:53;;;;;;;12.67;11.37;;;;;;;;;;5010165;28;20213;-95
2023/03/06 10:36:26;;;;;;;16.13;11.30;;;;;;;;;;5068174;28;20215;-93
2023/03/06 10:39:02;;;;;;;14.37;11.20;;;;;;;;;;5069981;28;20198;-94
2023/03/06 10:41:39;;;;;;;13.57;11.57;;;;;;;;;;5071675;28;20249;-93
2023/03/06 10:44:30;;;;;;;13.50;12.07;;;;;;;;;;5070804;28;20209;-95
2023/03/06 10:47:30;;;;;;;13.77;11.03;;;;;;;;;;5066199;28;20231;-95
2023/03/06 10:50:04;;;;;;;14.07;12.33;;;;;;;;;;5065183;28;20219;-95
2023/03/06 10:52:37;;;;;;;14.60;11.40;;;;;;;;;;5062941;28;20217;-92
2023/03/06 10:55:25;;;;;;;13.93;11.87;;;;;;;;;;5071198;28;20214;-93
2023/03/06 10:57:52;;;;;;;12.97;11.53;;;;;;;;;;5072525;28;20207;-93
2023/03/06 11:00:39;;;;;;;15.53;11.80;;;;;;;;;;5068482;28;20206;-95
2023/03/06 11:03:29;;;;;;;16.43;12.73;;;;;;;;;;5061284;28;20305;-95
2023/03/06 11:06:12;;;;;;;13.10;11.70;;;;;;;;;;5067424;28;20206;-95
2023/03/06 11:09:09;;;;;;;14.33;11.70;;;;;;;;;;5065987;28;20209;-96
2023/03/06 11:11:53;;;;;;;13.47;11.53;;;;;;;;;;5060168;28;20205;-94
2023/03/06 11:17:32;;;;;;;14.10;11.63;;;;;;;;;;5060984;28;20347;-95
2023/03/06 11:20:25;;;;;;;15.20;12.00;;;;;;;;;;5067319;28;20199;-95
2023/03/06 11:23:00;;;;;;;15.07;11.77;;;;;;;;;;5062026;28;20270;-95
2023/03/06 11:25:47;;;;;;;14.83;12.03;;;;;;;;;;5060595;28;20202;-95
2023/03/06 11:28:22;;;;;;;13.57;11.30;;;;;;;;;;5065854;28;20297;-95
2023/03/06 11:30:55;;;;;;;14.63;12.37;;;;;;;;;;5059406;28;20293;-95
2023/03/06 11:36:27;;;;;;;14.30;12.37;;;;;;;;;;5053704;28;20195;-95
2023/03/06 11:42:04;;;;;;;13.60;12.13;;;;;;;;;;5057937;28;20191;-95
2023/03/06 11:44:57;;;;;;;14.77;11.30;;;;;;;;;;5070306;28;20206;-95
2023/03/06 11:47:36;;;;;;;13.63;11.60;;;;;;;;;;5066394;28;20223;-94
2023/03/06 11:50:17;;;;;;;14.47;12.13;;;;;;;;;;5062899;28;20229;-94
2023/03/06 11:52:51;;;;;;;14.10;12.00;;;;;;;;;;5065451;28;20198;-95
2023/03/06 11:55:39;;;;;;;13.10;11.03;;;;;;;;;;5063680;28;20209;-95
2023/03/06 11:58:40;;;;;;;12.60;10.13;;;;;;;;;;5058456;28;20281;-95
2023/03/06 12:01:38;;;;;;;12.37;10.50;;;;;;;;;;5070063;28;20213;-96
2023/03/06 12:04:29;;;;;;;11.43;10.07;;;;;;;;;;5066252;28;20207;-95
2023/03/06 12:07:16;;;;;;;12.07;9.93;;;;;;;;;;5065470;28;20235;-96
2023/03/06 12:13:12;;;;;;;10.87;9.53;;;;;;;;;;5065420;28;20202;-95
2023/03/06 12:18:51;;;;;;;11.50;10.30;;;;;;;;;;5060889;28;20210;-95
2023/03/06 12:22:05;;;;;;;11.60;10.03;;;;;;;;;;5073187;28;20232;-96
2023/03/06 12:24:53;;;;;;;12.07;9.80;;;;;;;;;;4999252;28;20292;-95
2023/03/06 12:27:44;;;;;;;10.50;9.30;;;;;;;;;;5065411;28;20269;-96
2023/03/06 12:30:35;;;;;;;11.80;10.40;;;;;;;;;;5058880;28;20195;-95
2023/03/06 12:33:07;;;;;;;12.37;10.40;;;;;;;;;;5045412;28;20210;-94
2023/03/06 12:35:53;;;;;;;11.67;10.37;;;;;;;;;;5063667;28;20215;-95
2023/03/06 12:38:38;;;;;;;10.97;9.87;;;;;;;;;;5067003;28;20211;-95
2023/03/06 12:41:26;;;;;;;11.63;10.17;;;;;;;;;;5060369;28;20218;-95
2023/03/06 12:44:05;;;;;;;11.93;10.07;;;;;;;;;;5064923;28;20233;-95
2023/03/06 12:46:39;;;;;;;11.90;10.13;;;;;;;;;;5068406;28;20225;-94
2023/03/06 12:49:11;;;;;;;10.97;9.87;;;;;;;;;;5063890;28;20218;-95
2023/03/06 12:51:47;;;;;;;11.43;9.97;;;;;;;;;;5067022;28;20234;-95
2023/03/06 12:54:15;;;;;;;11.20;9.27;;;;;;;;;;5064890;28;20198;-94
2023/03/06 12:56:49;;;;;;;11.30;10.10;;;;;;;;;;5061600;28;20359;-95
2023/03/06 12:59:48;;;;;;;11.33;10.13;;;;;;;;;;5063948;28;20218;-94
2023/03/06 13:02:28;;;;;;;10.60;9.07;;;;;;;;;;5061364;28;20207;-96
2023/03/06 13:05:14;;;;;;;12.93;10.17;;;;;;;;;;5064211;28;20218;-94
2023/03/06 13:07:55;;;;;;;12.23;9.70;;;;;;;;;;5064593;28;20305;-93
2023/03/06 13:10:37;;;;;;;11.13;9.67;;;;;;;;;;5060875;28;20211;-93
2023/03/06 13:13:28;;;;;;;10.33;9.10;;;;;;;;;;5063493;28;20210;-94
2023/03/06 13:16:28;;;;;;;9.97;8.97;;;;;;;;;;5061818;28;20217;-94
2023/03/06 13:19:36;;;;;;;11.67;9.87;;;;;;;;;;5063493;28;20210;-94
2023/03/06 13:22:14;;;;;;;10.27;8.90;;;;;;;;;;4988611;28;20208;-94
2023/03/06 13:25:02;;;;;;;10.33;9.33;;;;;;;;;;4981685;28;20217;-94
2023/03/06 13:27:45;;;;;;;10.30;9.10;;;;;;;;;;5058630;28;20225;-94
2023/03/06 13:30:47;;;;;;;11.33;10.03;;;;;;;;;;5064229;28;20246;-95
2023/03/06 13:33:39;;;;;;;11.10;9.53;;;;;;;;;;5066717;28;20197;-93
2023/03/06 13:36:31;;;;;;;12.53;9.90;;;;;;;;;;5066171;28;20289;-94
2023/03/06 13:46:14;;;;;;;10.90;9.17;;;;;;;;;;5056150;28;20205;-95
2023/03/06 13:49:05;;;;;;;11.40;9.57;;;;;;;;;;5063990;28;20218;-95
2023/03/06 13:52:02;;;;;;;11.50;9.63;;;;;;;;;;5058108;28;20210;-95
2023/03/06 13:55:08;;;;;;;11.43;9.63;;;;;;;;;;5066897;28;20208;-96
2023/03/06 13:58:04;;;;;;;10.93;9.60;;;;;;;;;;5041715;28;20195;-94
2023/03/06 14:00:50;;;;;;;11.67;10.27;;;;;;;;;;5062053;28;20238;-93
2023/03/06 14:06:55;;;;;;;12.23;10.20;;;;;;;;;;5033114;28;20298;-94
2023/03/06 14:09:43;;;;;;;11.93;10.23;;;;;;;;;;5003518;28;20209;-95
2023/03/06 14:12:17;;;;;;;12.57;10.53;;;;;;;;;;5003033;28;20209;-95
2023/03/06 14:14:49;;;;;;;12.00;10.43;;;;;;;;;;5003392;28;20208;-95
2023/03/06 14:17:34;;;;;;;11.43;10.20;;;;;;;;;;5004728;28;20201;-95
2023/03/06 14:20:16;;;;;;;12.07;10.40;;;;;;;;;;5014659;28;20210;-96
2023/03/06 14:22:49;;;;;;;12.70;10.50;;;;;;;;;;5063627;28;20208;-96
2023/03/06 14:25:30;;;;;;;14.00;11.07;;;;;;;;;;5068272;28;20213;-95
2023/03/06 14:28:01;;;;;;;12.97;10.80;;;;;;;;;;5065377;28;20515;-96
2023/03/06 14:30:51;;;;;;;12.73;10.93;;;;;;;;;;5068250;28;20279;-94
2023/03/06 14:33:28;;;;;;;12.43;10.20;;;;;;;;;;5069819;28;20211;-95
2023/03/06 14:36:01;;;;;;;15.20;11.70;;;;;;;;;;5071159;28;20288;-94
2023/03/06 14:38:33;;;;;;;12.93;11.27;;;;;;;;;;5070392;28;20278;-95
2023/03/06 14:41:05;;;;;;;12.20;10.60;;;;;;;;;;5069179;28;20207;-96
2023/03/06 14:43:32;;;;;;;14.27;11.03;;;;;;;;;;5067184;28;20238;-96
2023/03/06 14:46:09;;;;;;;13.77;10.83;;;;;;;;;;5071792;28;20209;-95
2023/03/06 14:48:48;;;;;;;13.00;10.93;;;;;;;;;;5066110;28;20238;-96
2023/03/06 14:51:21;;;;;;;13.03;11.00;;;;;;;;;;5070345;28;20210;-96
2023/03/06 14:54:06;;;;;;;;;;;;;;;;;;;;;
2023/03/06 14:56:44;;;;;;;16.00;13.00;;;;;;;;;;5060117;28;20195;-94
2023/03/06 14:59:27;;;;;;;16.10;11.93;;;;;;;;;;5064010;28;20274;-96
2023/03/06 15:02:04;;;;;;;15.60;11.87;;;;;;;;;;5064600;28;20205;-96
2023/03/06 15:04:36;;;;;;;14.47;11.93;;;;;;;;;;5065428;28;20275;-94
2023/03/06 15:07:13;;;;;;;16.97;11.73;;;;;;;;;;5062656;28;20209;-96
2023/03/06 15:09:47;;;;;;;13.90;11.73;;;;;;;;;;5067127;28;20215;-95
2023/03/06 15:12:33;;;;;;;14.70;11.87;;;;;;;;;;5069656;28;20253;-95
2023/03/06 15:15:03;;;;;;;14.20;10.80;;;;;;;;;;5065369;28;20214;-94
2023/03/06 15:17:32;;;;;;;14.97;11.80;;;;;;;;;;5057529;28;20195;-95
2023/03/06 15:20:01;;;;;;;14.53;11.60;;;;;;;;;;5063642;28;20206;-96
2023/03/06 15:22:30;;;;;;;15.83;10.80;;;;;;;;;;5065134;28;20226;-95
2023/03/06 15:25:10;;;;;;;12.73;10.87;;;;;;;;;;5064683;28;20225;-95
2023/03/06 15:27:37;;;;;;;13.43;10.60;;;;;;;;;;5064208;28;20226;-95
2023/03/06 15:30:16;;;;;;;14.10;11.33;;;;;;;;;;5071447;28;20206;-95
2023/03/06 15:32:44;;;;;;;12.73;10.93;;;;;;;;;;5066681;28;20280;-95
2023/03/06 15:35:28;;;;;;;12.47;10.50;;;;;;;;;;5066131;28;20222;-95
2023/03/06 15:37:55;;;;;;;15.90;11.13;;;;;;;;;;5067626;28;20211;-95
2023/03/06 15:40:24;;;;;;;12.77;10.77;;;;;;;;;;5067324;28;20213;-95
2023/03/06 15:42:54;;;;;;;14.27;11.07;;;;;;;;;;5066696;28;20210;-95
2023/03/06 15:45:24;;;;;;;17.20;12.80;;;;;;;;;;5063723;28;20231;-93
2023/03/06 15:47:54;;;;;;;17.23;11.80;;;;;;;;;;5054420;28;20224;-95
2023/03/06 15:50:32;;;;;;;15.20;11.27;;;;;;;;;;5060329;28;20207;-95
2023/03/06 15:53:01;;;;;;;13.27;11.13;;;;;;;;;;5066761;28;20206;-95
2023/03/06 15:55:32;;;;;;;13.17;10.83;;;;;;;;;;5064852;28;20195;-94
2023/03/06 15:58:03;;;;;;;13.87;10.60;;;;;;;;;;5068231;28;20297;-95
2023/03/06 16:00:37;;;;;;;13.43;10.47;;;;;;;;;;5064321;28;20191;-95
2023/03/06 16:03:05;;;;;;;12.23;10.43;;;;;;;;;;5063909;28;20345;-96
2023/03/06 16:05:32;;;;;;;13.00;10.63;;;;;;;;;;5064440;28;20207;-95
2023/03/06 16:08:00;;;;;;;12.90;10.50;;;;;;;;;;5068430;28;20252;-95
2023/03/06 16:10:29;;;;;;;15.03;11.50;;;;;;;;;;5057707;28;20199;-94
2023/03/06 16:12:58;;;;;;;15.30;11.37;;;;;;;;;;5060386;28;20305;-95
2023/03/06 16:15:28;;;;;;;13.70;10.33;;;;;;;;;;5064773;28;20265;-94
2023/03/06 16:18:05;;;;;;;12.40;10.57;;;;;;;;;;5065184;28;20206;-93
2023/03/06 16:20:32;;;;;;;15.00;10.40;;;;;;;;;;5069001;28;20194;-92
2023/03/06 16:23:06;;;;;;;12.83;10.10;;;;;;;;;;5065783;28;20210;-94
2023/03/06 16:25:37;;;;;;;13.97;10.80;;;;;;;;;;5066250;28;20272;-93
2023/03/06 16:30:59;;;;;;;14.00;11.73;;;;;;;;;;5069507;28;20281;-94